Time;durP1;ratioP1;P1;durP2;ratioP2;P2;SDS_P1;SDS_P2;PMS_P1;PMS_P2;Temp;Humidity;BMP_temperature;BMP_pressure;BME280_temperature;BME280_humidity;BME280_pressure;Samples;Min_cycle;Max_cycle;Signal;HPM_P1;HPM_P2
2023/07/08 00:03:48;;;;;;;8.30;5.40;;;;;;;;;;10339650;28;20076;-61
2023/07/08 00:08:48;;;;;;;9.25;5.05;;;;;;;;;;10349662;28;20049;-57
2023/07/08 00:13:49;;;;;;;7.15;4.90;;;;;;;;;;10337960;28;20041;-58
2023/07/08 00:18:49;;;;;;;8.00;5.63;;;;;;;;;;10361617;28;20030;-59
2023/07/08 00:23:51;;;;;;;9.82;6.15;;;;;;;;;;10339444;28;20599;-58
2023/07/08 00:28:52;;;;;;;8.00;5.38;;;;;;;;;;10345756;28;20026;-59
2023/07/08 00:33:55;;;;;;;9.52;5.80;;;;;;;;;;10333093;28;20505;-60
2023/07/08 00:38:58;;;;;;;9.93;5.90;;;;;;;;;;10346285;28;20555;-58
2023/07/08 00:44:00;;;;;;;6.40;5.18;;;;;;;;;;10349682;28;20026;-58
2023/07/08 00:49:06;;;;;;;8.07;5.43;;;;;;;;;;10341535;28;20515;-58
2023/07/08 00:54:16;;;;;;;9.18;5.22;;;;;;;;;;10365209;28;20057;-57
2023/07/08 00:59:35;;;;;;;11.48;5.53;;;;;;;;;;10354720;28;20082;-57
2023/07/08 01:05:11;;;;;;;7.15;5.55;;;;;;;;;;10359683;28;20037;-58
2023/07/08 01:10:17;;;;;;;6.13;4.82;;;;;;;;;;10347256;28;20108;-58
2023/07/08 01:15:18;;;;;;;7.82;5.53;;;;;;;;;;10363065;28;20096;-58
2023/07/08 01:20:19;;;;;;;7.00;5.40;;;;;;;;;;10347739;28;20050;-58
2023/07/08 01:25:21;;;;;;;7.03;5.15;;;;;;;;;;10356452;28;20036;-58
2023/07/08 01:30:22;;;;;;;7.57;5.15;;;;;;;;;;10364685;28;20052;-58
2023/07/08 01:35:23;;;;;;;8.07;5.25;;;;;;;;;;10363765;28;20034;-58
2023/07/08 01:40:34;;;;;;;9.32;5.30;;;;;;;;;;10363241;28;20041;-58
2023/07/08 01:45:40;;;;;;;5.47;4.40;;;;;;;;;;10351949;28;20579;-58
2023/07/08 01:50:58;;;;;;;7.15;5.30;;;;;;;;;;10341274;28;20522;-59
2023/07/08 01:55:59;;;;;;;;;;;;;;;;;;10343029;28;20091;-58
2023/07/08 02:01:01;;;;;;;11.35;4.90;;;;;;;;;;10362092;28;19914;-58
2023/07/08 02:06:03;;;;;;;9.30;4.97;;;;;;;;;;10348658;28;20037;-58
2023/07/08 02:11:03;;;;;;;6.82;4.95;;;;;;;;;;10353776;28;20031;-58
2023/07/08 02:16:07;;;;;;;6.43;4.55;;;;;;;;;;10355185;28;20038;-58
2023/07/08 02:21:08;;;;;;;10.15;4.90;;;;;;;;;;10335497;28;20035;-58
2023/07/08 02:26:09;;;;;;;7.25;4.70;;;;;;;;;;10346165;28;20022;-58
2023/07/08 02:31:10;;;;;;;9.10;4.75;;;;;;;;;;10350210;28;20029;-57
2023/07/08 02:36:10;;;;;;;7.68;5.05;;;;;;;;;;10345566;28;20039;-58
2023/07/08 02:41:11;;;;;;;8.98;5.00;;;;;;;;;;10329270;28;20028;-57
2023/07/08 02:46:12;;;;;;;11.20;5.65;;;;;;;;;;10350336;28;20025;-58
2023/07/08 02:51:12;;;;;;;12.25;5.40;;;;;;;;;;10349588;28;20054;-58
2023/07/08 02:56:13;;;;;;;7.30;5.10;;;;;;;;;;10351047;28;20025;-58
2023/07/08 03:01:17;;;;;;;7.65;4.82;;;;;;;;;;10348488;28;20084;-57
2023/07/08 03:06:17;;;;;;;7.07;4.85;;;;;;;;;;10349144;28;20037;-58
2023/07/08 03:11:18;;;;;;;7.68;4.65;;;;;;;;;;10340744;28;20045;-58
2023/07/08 03:16:19;;;;;;;10.07;4.97;;;;;;;;;;10350881;28;20180;-58
2023/07/08 03:21:19;;;;;;;9.25;5.13;;;;;;;;;;10369558;28;20495;-58
2023/07/08 03:26:24;;;;;;;7.05;4.40;;;;;;;;;;10333557;28;20435;-58
2023/07/08 03:31:24;;;;;;;8.80;4.75;;;;;;;;;;10363169;28;20033;-58
2023/07/08 03:36:26;;;;;;;6.50;5.20;;;;;;;;;;10344012;28;20374;-58
2023/07/08 03:41:27;;;;;;;10.88;5.47;;;;;;;;;;10362285;28;20030;-57
2023/07/08 03:46:27;;;;;;;9.38;5.93;;;;;;;;;;10352672;28;20022;-57
2023/07/08 03:51:35;;;;;;;8.90;5.38;;;;;;;;;;10355499;28;20046;-58
2023/07/08 03:56:36;;;;;;;10.77;5.43;;;;;;;;;;10354154;28;20359;-58
2023/07/08 04:01:40;;;;;;;10.45;5.78;;;;;;;;;;10356212;28;20041;-57
2023/07/08 04:06:41;;;;;;;7.85;4.97;;;;;;;;;;10338437;28;20101;-57
2023/07/08 04:11:42;;;;;;;11.05;5.18;;;;;;;;;;10342582;28;20026;-57
2023/07/08 04:16:59;;;;;;;7.70;5.30;;;;;;;;;;10344232;28;20025;-57
2023/07/08 04:22:01;;;;;;;;;;;;;;;;;;10342863;28;20015;-57
2023/07/08 04:27:03;;;;;;;6.68;5.10;;;;;;;;;;10334719;28;19917;-57
2023/07/08 04:32:04;;;;;;;6.82;5.80;;;;;;;;;;10332289;28;20223;-59
2023/07/08 04:37:04;;;;;;;7.60;5.63;;;;;;;;;;10366993;28;20256;-58
2023/07/08 04:42:05;;;;;;;9.60;6.07;;;;;;;;;;10343403;28;20054;-56
2023/07/08 04:47:06;;;;;;;9.68;6.07;;;;;;;;;;10360112;28;20034;-56
2023/07/08 04:52:07;;;;;;;8.35;4.97;;;;;;;;;;10334299;28;20030;-56
2023/07/08 04:57:07;;;;;;;10.18;5.07;;;;;;;;;;10355159;28;20026;-55
2023/07/08 05:02:08;;;;;;;7.45;4.25;;;;;;;;;;10352568;28;20061;-56
2023/07/08 05:07:09;;;;;;;9.63;5.63;;;;;;;;;;10357214;28;20033;-56
2023/07/08 05:12:09;;;;;;;6.53;4.82;;;;;;;;;;10354548;28;20038;-57
2023/07/08 05:17:10;;;;;;;9.02;4.18;;;;;;;;;;10344465;28;20026;-57
2023/07/08 05:22:11;;;;;;;6.65;4.30;;;;;;;;;;10348903;28;20109;-56
2023/07/08 05:27:13;;;;;;;5.18;4.10;;;;;;;;;;10345552;28;20026;-56
2023/07/08 05:32:14;;;;;;;4.90;3.90;;;;;;;;;;10353064;28;20482;-56
2023/07/08 05:37:14;;;;;;;5.20;4.05;;;;;;;;;;10328936;28;20030;-57
2023/07/08 05:42:15;;;;;;;6.75;3.85;;;;;;;;;;10340588;28;20385;-54
2023/07/08 05:47:16;;;;;;;6.95;3.90;;;;;;;;;;10345925;28;20038;-57
2023/07/08 05:52:16;;;;;;;4.80;3.97;;;;;;;;;;10343950;28;20520;-61
2023/07/08 05:57:17;;;;;;;4.28;3.88;;;;;;;;;;10338588;28;20026;-58
2023/07/08 06:02:25;;;;;;;6.22;3.65;;;;;;;;;;10341946;28;20110;-61
2023/07/08 06:07:25;;;;;;;4.65;3.60;;;;;;;;;;10349731;28;20041;-61
2023/07/08 06:12:27;;;;;;;4.72;3.78;;;;;;;;;;10348605;28;20041;-61
2023/07/08 06:17:27;;;;;;;6.38;3.90;;;;;;;;;;10328082;28;20398;-59
2023/07/08 06:22:28;;;;;;;4.70;3.90;;;;;;;;;;10333919;28;20045;-60
2023/07/08 06:27:28;;;;;;;5.65;3.60;;;;;;;;;;10340423;28;20034;-57
2023/07/08 06:32:29;;;;;;;7.20;4.07;;;;;;;;;;10340460;28;20037;-57
2023/07/08 06:37:30;;;;;;;4.35;3.70;;;;;;;;;;10338443;28;20034;-58
2023/07/08 06:42:30;;;;;;;3.97;3.58;;;;;;;;;;10347052;28;20517;-61
2023/07/08 06:47:31;;;;;;;4.50;3.53;;;;;;;;;;10350528;28;20666;-61
2023/07/08 06:52:34;;;;;;;4.18;3.28;;;;;;;;;;10339987;28;20026;-60
2023/07/08 06:57:35;;;;;;;4.40;3.20;;;;;;;;;;10347125;28;20125;-62
2023/07/08 07:02:36;;;;;;;4.95;3.20;;;;;;;;;;10345962;28;20105;-62
2023/07/08 07:07:37;;;;;;;4.93;3.50;;;;;;;;;;10341457;28;20027;-58
2023/07/08 07:12:37;;;;;;;3.53;3.10;;;;;;;;;;10351225;28;20273;-61
2023/07/08 07:17:38;;;;;;;4.03;3.03;;;;;;;;;;10346109;28;20109;-61
2023/07/08 07:22:38;;;;;;;12.25;3.83;;;;;;;;;;10341476;28;20462;-63
2023/07/08 07:27:39;;;;;;;9.65;3.60;;;;;;;;;;10335173;28;20026;-62
2023/07/08 07:32:40;;;;;;;8.80;3.67;;;;;;;;;;10343187;28;20038;-62
2023/07/08 07:37:42;;;;;;;6.80;3.55;;;;;;;;;;10352944;28;20022;-57
2023/07/08 07:42:45;;;;;;;5.65;3.78;;;;;;;;;;10327587;28;20050;-60
2023/07/08 07:47:46;;;;;;;6.63;3.58;;;;;;;;;;10347985;28;20124;-59
2023/07/08 07:52:46;;;;;;;9.05;3.20;;;;;;;;;;10342634;28;20068;-60
2023/07/08 07:57:47;;;;;;;5.85;3.35;;;;;;;;;;10350198;28;20023;-61
2023/07/08 08:02:48;;;;;;;4.03;3.30;;;;;;;;;;10348464;28;20544;-61
2023/07/08 08:07:49;;;;;;;4.00;3.15;;;;;;;;;;10354276;28;20018;-62
2023/07/08 08:12:50;;;;;;;4.70;2.97;;;;;;;;;;10340066;28;20034;-61
2023/07/08 08:17:51;;;;;;;4.13;3.22;;;;;;;;;;10352256;28;20022;-61
2023/07/08 08:22:52;;;;;;;4.50;3.40;;;;;;;;;;10357384;28;20046;-62
2023/07/08 08:27:53;;;;;;;4.10;3.08;;;;;;;;;;10359487;28;20481;-63
2023/07/08 08:32:53;;;;;;;5.90;2.88;;;;;;;;;;10345556;28;20105;-60
2023/07/08 08:37:54;;;;;;;8.13;3.53;;;;;;;;;;10351474;28;20261;-58
2023/07/08 08:43:06;;;;;;;5.93;3.40;;;;;;;;;;10360565;28;20030;-63
2023/07/08 08:48:14;;;;;;;13.63;4.88;;;;;;;;;;10347664;28;20046;-58
2023/07/08 08:53:18;;;;;;;7.15;5.75;;;;;;;;;;10343296;28;20112;-61
2023/07/08 08:58:37;;;;;;;9.45;5.82;;;;;;;;;;10350934;28;20113;-62
2023/07/08 09:03:51;;;;;;;6.72;5.10;;;;;;;;;;10364289;28;20037;-61
2023/07/08 09:08:53;;;;;;;8.07;5.20;;;;;;;;;;10353094;28;20021;-58
2023/07/08 09:13:54;;;;;;;8.00;5.65;;;;;;;;;;10348232;28;20048;-57
2023/07/08 09:19:10;;;;;;;9.55;6.45;;;;;;;;;;10332771;28;20041;-58
2023/07/08 09:24:29;;;;;;;9.15;5.03;;;;;;;;;;10346671;28;20030;-57
2023/07/08 09:29:33;;;;;;;8.95;5.97;;;;;;;;;;10348871;28;20157;-63
2023/07/08 09:34:43;;;;;;;11.00;5.68;;;;;;;;;;10339300;28;20069;-60
2023/07/08 09:39:44;;;;;;;10.30;6.35;;;;;;;;;;10344634;28;20038;-62
2023/07/08 09:44:45;;;;;;;8.82;5.97;;;;;;;;;;10360571;28;20042;-63
2023/07/08 09:49:47;;;;;;;7.88;5.15;;;;;;;;;;10342028;28;20072;-63
2023/07/08 09:54:48;;;;;;;11.20;5.78;;;;;;;;;;10341516;28;20060;-63
2023/07/08 09:59:56;;;;;;;9.00;5.78;;;;;;;;;;10340473;28;20038;-62
2023/07/08 10:05:01;;;;;;;10.40;5.45;;;;;;;;;;10327365;28;20441;-63
2023/07/08 10:10:09;;;;;;;8.40;5.47;;;;;;;;;;10341347;28;20041;-61
2023/07/08 10:15:28;;;;;;;6.50;5.25;;;;;;;;;;10353784;28;20443;-63
2023/07/08 10:20:49;;;;;;;8.05;5.07;;;;;;;;;;10349396;28;20029;-63
2023/07/08 10:26:11;;;;;;;11.45;5.45;;;;;;;;;;10341417;28;20021;-63
2023/07/08 10:31:32;;;;;;;8.20;5.85;;;;;;;;;;10360223;28;20176;-63
2023/07/08 10:36:55;;;;;;;10.15;5.40;;;;;;;;;;10348754;28;20496;-62
2023/07/08 10:42:41;;;;;;;7.28;5.28;;;;;;;;;;10347176;28;20117;-64
2023/07/08 10:48:28;;;;;;;8.05;4.88;;;;;;;;;;10343279;28;20041;-61
2023/07/08 10:54:26;;;;;;;8.57;5.13;;;;;;;;;;10342594;28;20044;-57
2023/07/08 11:00:04;;;;;;;6.05;5.30;;;;;;;;;;10360753;28;20284;-61
2023/07/08 11:05:08;;;;;;;7.22;5.20;;;;;;;;;;10378337;28;20038;-56
2023/07/08 11:10:16;;;;;;;6.50;5.10;;;;;;;;;;10342346;28;20422;-58
2023/07/08 11:15:31;;;;;;;6.72;5.07;;;;;;;;;;10344989;28;20458;-59
2023/07/08 11:21:03;;;;;;;7.55;5.47;;;;;;;;;;10338247;28;20037;-60
2023/07/08 11:26:30;;;;;;;9.45;4.57;;;;;;;;;;10351717;28;20405;-61
2023/07/08 11:31:33;;;;;;;16.13;5.30;;;;;;;;;;10340350;28;20466;-63
2023/07/08 11:36:35;;;;;;;9.60;5.22;;;;;;;;;;10353126;28;20026;-63
2023/07/08 11:41:35;;;;;;;6.72;4.60;;;;;;;;;;10349814;28;20068;-61
2023/07/08 11:46:52;;;;;;;16.10;5.63;;;;;;;;;;10347142;28;20025;-61
2023/07/08 11:51:56;;;;;;;9.37;5.93;;;;;;;;;;10335761;28;20039;-61
2023/07/08 11:57:17;;;;;;;7.82;5.65;;;;;;;;;;10329080;28;20040;-63
2023/07/08 12:02:20;;;;;;;7.82;5.00;;;;;;;;;;10366859;28;20037;-59
2023/07/08 12:07:37;;;;;;;9.35;4.82;;;;;;;;;;10363784;28;20037;-63
2023/07/08 12:12:42;;;;;;;9.70;5.23;;;;;;;;;;10352909;28;20045;-61
2023/07/08 12:17:44;;;;;;;11.15;4.90;;;;;;;;;;10361183;28;20030;-60
2023/07/08 12:22:44;;;;;;;10.10;5.25;;;;;;;;;;10362113;28;20416;-61
2023/07/08 12:27:46;;;;;;;8.48;5.13;;;;;;;;;;10367105;28;20088;-62
2023/07/08 12:32:46;;;;;;;8.90;5.35;;;;;;;;;;10361174;28;20045;-61
2023/07/08 12:37:47;;;;;;;7.43;5.22;;;;;;;;;;10364728;28;20462;-61
2023/07/08 12:42:48;;;;;;;7.10;5.18;;;;;;;;;;10363546;28;20485;-60
2023/07/08 12:47:49;;;;;;;6.40;4.80;;;;;;;;;;10365003;28;20049;-60
2023/07/08 12:52:49;;;;;;;6.88;5.28;;;;;;;;;;10369349;28;20053;-62
2023/07/08 12:57:52;;;;;;;8.32;5.28;;;;;;;;;;10359256;28;20040;-61
2023/07/08 13:03:08;;;;;;;13.80;5.03;;;;;;;;;;10362596;28;20045;-61
2023/07/08 13:08:23;;;;;;;5.80;4.80;;;;;;;;;;10343844;28;20473;-60
2023/07/08 13:13:30;;;;;;;8.82;5.20;;;;;;;;;;10365915;28;20038;-60
2023/07/08 13:18:35;;;;;;;8.13;5.40;;;;;;;;;;10368247;28;20449;-57
2023/07/08 13:23:36;;;;;;;7.20;4.88;;;;;;;;;;10353024;28;20454;-57
2023/07/08 13:28:39;;;;;;;8.80;5.00;;;;;;;;;;10367242;28;20030;-57
2023/07/08 13:33:54;;;;;;;5.53;4.57;;;;;;;;;;10285534;23;20055;-58
2023/07/08 13:38:56;;;;;;;6.60;4.30;;;;;;;;;;10236840;29;20420;-59
2023/07/08 13:44:00;;;;;;;6.35;4.90;;;;;;;;;;10209884;29;20031;-58
2023/07/08 13:49:13;;;;;;;7.28;5.70;;;;;;;;;;10224364;29;20034;-59
2023/07/08 13:54:19;;;;;;;8.90;4.97;;;;;;;;;;10238758;28;20028;-58
2023/07/08 13:59:25;;;;;;;6.53;4.78;;;;;;;;;;10223745;29;20027;-58
2023/07/08 14:04:35;;;;;;;7.23;5.20;;;;;;;;;;10240902;28;20048;-58
2023/07/08 14:09:36;;;;;;;6.20;4.70;;;;;;;;;;10216843;29;20444;-58
2023/07/08 14:14:36;;;;;;;5.82;4.78;;;;;;;;;;10225836;29;20038;-59
2023/07/08 14:19:37;;;;;;;7.60;4.72;;;;;;;;;;10240662;28;20031;-59
2023/07/08 14:24:38;;;;;;;7.18;4.97;;;;;;;;;;10241540;28;20036;-59
2023/07/08 14:29:40;;;;;;;6.47;4.55;;;;;;;;;;10231124;28;20031;-58
2023/07/08 14:34:41;;;;;;;6.68;5.03;;;;;;;;;;10228448;29;20105;-58
2023/07/08 14:39:45;;;;;;;6.55;4.63;;;;;;;;;;10230374;29;20127;-61
2023/07/08 14:44:49;;;;;;;6.30;4.55;;;;;;;;;;10242399;28;20126;-59
2023/07/08 14:49:50;;;;;;;6.85;4.85;;;;;;;;;;10230450;29;20036;-59
2023/07/08 14:54:50;;;;;;;11.38;4.60;;;;;;;;;;10238488;29;20027;-62
2023/07/08 14:59:51;;;;;;;6.25;4.88;;;;;;;;;;10241271;28;20038;-59
2023/07/08 15:04:53;;;;;;;9.38;4.63;;;;;;;;;;10241686;28;20039;-60
2023/07/08 15:09:54;;;;;;;6.50;4.72;;;;;;;;;;10243376;28;20027;-62
2023/07/08 15:14:54;;;;;;;5.50;4.90;;;;;;;;;;10235812;29;20031;-62
2023/07/08 15:19:55;;;;;;;7.05;4.55;;;;;;;;;;10233703;28;20435;-62
2023/07/08 15:24:55;;;;;;;13.05;4.72;;;;;;;;;;10252214;28;20367;-58
2023/07/08 15:29:56;;;;;;;6.88;4.63;;;;;;;;;;10203077;28;20403;-58
2023/07/08 15:34:57;;;;;;;6.38;4.97;;;;;;;;;;10242267;28;20458;-58
2023/07/08 15:39:57;;;;;;;5.65;4.35;;;;;;;;;;10236758;29;20031;-59
2023/07/08 15:44:58;;;;;;;5.88;4.68;;;;;;;;;;10241785;28;20106;-59
2023/07/08 15:49:58;;;;;;;6.22;4.47;;;;;;;;;;10225947;28;20035;-58
2023/07/08 15:54:59;;;;;;;6.07;4.70;;;;;;;;;;10244369;28;20039;-59
2023/07/08 15:59:59;;;;;;;5.65;4.75;;;;;;;;;;10226449;28;20027;-58
2023/07/08 16:05:00;;;;;;;6.93;4.60;;;;;;;;;;10228389;28;20039;-59
2023/07/08 16:10:01;;;;;;;7.72;4.45;;;;;;;;;;10238929;28;20035;-58
2023/07/08 16:15:02;;;;;;;7.15;4.95;;;;;;;;;;10248638;28;20023;-58
2023/07/08 16:20:09;;;;;;;6.40;4.32;;;;;;;;;;10236080;28;20024;-62
2023/07/08 16:25:16;;;;;;;7.10;4.80;;;;;;;;;;10243679;28;20032;-62
2023/07/08 16:30:20;;;;;;;7.03;4.93;;;;;;;;;;10230443;29;20043;-62
2023/07/08 16:35:22;;;;;;;5.65;4.20;;;;;;;;;;10241211;29;20034;-62
2023/07/08 16:40:25;;;;;;;6.57;4.50;;;;;;;;;;10236045;28;20024;-62
2023/07/08 16:45:27;;;;;;;4.95;4.18;;;;;;;;;;10233815;29;20206;-62
2023/07/08 16:50:28;;;;;;;4.85;4.10;;;;;;;;;;10216528;28;20042;-62
2023/07/08 16:55:28;;;;;;;8.15;4.30;;;;;;;;;;10247532;28;20043;-59
2023/07/08 17:00:30;;;;;;;5.60;4.57;;;;;;;;;;10248337;28;20483;-62
2023/07/08 17:05:35;;;;;;;4.32;3.88;;;;;;;;;;10235146;29;20031;-62
2023/07/08 17:10:35;;;;;;;4.82;3.95;;;;;;;;;;10247439;28;20089;-62
2023/07/08 17:15:37;;;;;;;5.13;4.05;;;;;;;;;;10224124;28;20079;-62
2023/07/08 17:20:38;;;;;;;5.38;4.07;;;;;;;;;;10234486;29;20484;-62
2023/07/08 17:25:39;;;;;;;4.90;4.00;;;;;;;;;;10237187;29;20039;-59
2023/07/08 17:30:42;;;;;;;5.45;3.80;;;;;;;;;;10240190;28;20073;-59
2023/07/08 17:35:44;;;;;;;4.97;3.88;;;;;;;;;;10230742;29;20396;-59
2023/07/08 17:40:45;;;;;;;6.80;3.97;;;;;;;;;;10219963;28;20163;-59
2023/07/08 17:45:45;;;;;;;5.20;3.88;;;;;;;;;;10242655;28;20183;-59
2023/07/08 17:50:46;;;;;;;5.15;4.10;;;;;;;;;;10222984;28;20037;-58
2023/07/08 17:55:50;;;;;;;7.70;4.15;;;;;;;;;;10239673;28;20024;-58
2023/07/08 18:00:51;;;;;;;4.65;3.83;;;;;;;;;;10226669;28;20034;-59
2023/07/08 18:05:51;;;;;;;4.35;3.95;;;;;;;;;;10228411;29;20396;-59
2023/07/08 18:10:52;;;;;;;5.53;3.95;;;;;;;;;;10211751;28;20387;-58
2023/07/08 18:15:53;;;;;;;5.50;3.90;;;;;;;;;;10225048;29;20027;-59
2023/07/08 18:20:54;;;;;;;4.30;3.80;;;;;;;;;;10241004;28;20035;-58
2023/07/08 18:25:54;;;;;;;6.57;4.15;;;;;;;;;;10235620;28;20035;-62
2023/07/08 18:30:55;;;;;;;5.57;4.20;;;;;;;;;;10233549;28;20044;-63
2023/07/08 18:35:56;;;;;;;7.82;4.25;;;;;;;;;;10240611;28;20034;-62
2023/07/08 18:40:57;;;;;;;4.65;3.97;;;;;;;;;;10244239;28;20023;-61
2023/07/08 18:45:58;;;;;;;8.43;4.20;;;;;;;;;;10229645;29;20467;-61
2023/07/08 18:50:58;;;;;;;6.00;4.57;;;;;;;;;;10235892;28;20030;-62
2023/07/08 18:55:59;;;;;;;8.15;4.68;;;;;;;;;;10243106;28;20030;-62
2023/07/08 19:01:00;;;;;;;6.85;5.10;;;;;;;;;;10236237;28;20099;-62
2023/07/08 19:06:02;;;;;;;6.43;5.05;;;;;;;;;;10234673;28;20038;-62
2023/07/08 19:11:08;;;;;;;8.18;4.70;;;;;;;;;;10230713;28;20480;-61
2023/07/08 19:16:13;;;;;;;7.30;5.03;;;;;;;;;;10237113;29;20031;-62
2023/07/08 19:21:22;;;;;;;8.50;5.22;;;;;;;;;;10218263;28;20499;-61
2023/07/08 19:26:25;;;;;;;6.35;4.60;;;;;;;;;;10254632;28;20372;-61
2023/07/08 19:31:31;;;;;;;5.30;4.57;;;;;;;;;;10229055;28;20047;-60
2023/07/08 19:36:33;;;;;;;8.80;4.70;;;;;;;;;;10234251;29;20111;-61
2023/07/08 19:41:37;;;;;;;10.52;5.20;;;;;;;;;;10227563;28;20030;-61
2023/07/08 19:46:38;;;;;;;7.32;5.10;;;;;;;;;;10230725;29;20063;-61
2023/07/08 19:51:38;;;;;;;8.98;4.78;;;;;;;;;;10231051;29;20090;-61
2023/07/08 19:56:39;;;;;;;6.70;4.90;;;;;;;;;;10234158;28;20027;-61
2023/07/08 20:01:40;;;;;;;5.53;4.68;;;;;;;;;;10247332;28;20035;-61
2023/07/08 20:06:40;;;;;;;5.38;4.60;;;;;;;;;;10239389;28;20034;-61
2023/07/08 20:11:41;;;;;;;6.95;4.55;;;;;;;;;;10234291;28;20050;-60
2023/07/08 20:16:42;;;;;;;6.05;4.70;;;;;;;;;;10240581;28;20027;-61
2023/07/08 20:21:43;;;;;;;9.35;4.20;;;;;;;;;;10248852;28;20062;-58
2023/07/08 20:26:44;;;;;;;7.50;5.05;;;;;;;;;;10247569;28;20031;-60
2023/07/08 20:31:46;;;;;;;5.45;4.40;;;;;;;;;;10236522;28;20394;-59
2023/07/08 20:36:46;;;;;;;7.82;4.82;;;;;;;;;;10235396;29;20034;-59
2023/07/08 20:41:47;;;;;;;6.03;4.50;;;;;;;;;;10232924;28;20042;-61
2023/07/08 20:46:49;;;;;;;6.15;4.75;;;;;;;;;;10238151;28;20043;-61
2023/07/08 20:51:50;;;;;;;11.65;4.85;;;;;;;;;;10238779;29;20035;-61
2023/07/08 20:56:50;;;;;;;8.52;4.80;;;;;;;;;;10237003;28;20050;-62
2023/07/08 21:01:54;;;;;;;6.85;4.50;;;;;;;;;;10225394;29;20023;-61
2023/07/08 21:06:54;;;;;;;5.43;4.28;;;;;;;;;;10234867;28;20106;-62
2023/07/08 21:11:55;;;;;;;7.43;5.05;;;;;;;;;;10243017;28;20432;-61
2023/07/08 21:16:56;;;;;;;5.35;4.40;;;;;;;;;;10243934;29;20020;-61
2023/07/08 21:21:56;;;;;;;8.93;4.72;;;;;;;;;;10247003;28;20035;-59
2023/07/08 21:26:57;;;;;;;6.03;4.70;;;;;;;;;;10246112;28;20399;-59
2023/07/08 21:31:57;;;;;;;5.63;4.63;;;;;;;;;;10244576;28;20078;-61
2023/07/08 21:37:00;;;;;;;9.93;4.50;;;;;;;;;;10246127;28;20030;-60
2023/07/08 21:42:00;;;;;;;6.65;4.22;;;;;;;;;;10244818;28;20047;-59
2023/07/08 21:47:01;;;;;;;8.80;4.57;;;;;;;;;;10242597;28;20027;-58
2023/07/08 21:52:02;;;;;;;8.60;4.47;;;;;;;;;;10244855;28;20027;-59
2023/07/08 21:57:03;;;;;;;5.60;4.10;;;;;;;;;;10240552;28;20244;-59
2023/07/08 22:02:04;;;;;;;5.90;4.60;;;;;;;;;;10226885;28;20023;-59
2023/07/08 22:07:12;;;;;;;5.25;4.05;;;;;;;;;;10244560;28;20038;-58
2023/07/08 22:12:13;;;;;;;5.85;4.45;;;;;;;;;;10242605;28;20043;-59
2023/07/08 22:17:15;;;;;;;4.68;3.90;;;;;;;;;;10219699;28;20019;-59
2023/07/08 22:22:20;;;;;;;5.60;4.50;;;;;;;;;;10240818;28;20114;-58
2023/07/08 22:27:21;;;;;;;7.90;4.20;;;;;;;;;;10243441;28;20024;-62
2023/07/08 22:32:21;;;;;;;4.80;4.30;;;;;;;;;;10235524;29;20399;-62
2023/07/08 22:37:22;;;;;;;5.07;4.20;;;;;;;;;;10220508;28;20046;-62
2023/07/08 22:42:23;;;;;;;6.15;4.10;;;;;;;;;;10239530;28;20487;-62
2023/07/08 22:47:24;;;;;;;6.13;4.20;;;;;;;;;;10232251;28;20551;-62
2023/07/08 22:52:32;;;;;;;5.93;3.90;;;;;;;;;;10226014;28;20054;-62
2023/07/08 22:57:32;;;;;;;;;;;;;;;;;;10238947;29;20503;-62
2023/07/08 23:02:33;;;;;;;5.17;3.93;;;;;;;;;;10231078;29;20021;-62
2023/07/08 23:07:34;;;;;;;5.00;4.40;;;;;;;;;;10225265;28;20473;-62
2023/07/08 23:12:34;;;;;;;4.25;3.85;;;;;;;;;;10229943;28;20248;-62
2023/07/08 23:17:41;;;;;;;4.82;4.07;;;;;;;;;;10222604;29;20028;-61
2023/07/08 23:22:42;;;;;;;4.30;3.90;;;;;;;;;;10228949;28;20126;-59
2023/07/08 23:27:43;;;;;;;3.63;3.33;;;;;;;;;;10236927;28;20046;-60
2023/07/08 23:32:45;;;;;;;4.82;3.80;;;;;;;;;;10244198;28;20062;-59
2023/07/08 23:37:45;;;;;;;5.05;4.10;;;;;;;;;;10244807;29;20035;-59
2023/07/08 23:42:46;;;;;;;5.43;4.57;;;;;;;;;;10240850;28;20032;-56
2023/07/08 23:47:46;;;;;;;5.80;4.18;;;;;;;;;;10239980;28;20026;-53
2023/07/08 23:52:47;;;;;;;4.82;4.00;;;;;;;;;;10249653;28;20426;-48
2023/07/08 23:57:48;;;;;;;4.82;3.85;;;;;;;;;;10245648;28;20502;-51
